createdAt,value
2022-10-08T12:45:00.649Z,19.04
2022-10-08T12:46:01.568Z,19.04
2022-10-08T12:47:01.801Z,19.05
2022-10-08T12:48:01.553Z,19.01
2022-10-08T12:49:01.646Z,18.98
2022-10-08T12:50:01.547Z,18.86
2022-10-08T12:51:01.647Z,18.86
2022-10-08T12:52:01.581Z,18.85
2022-10-08T12:53:01.520Z,18.82
2022-10-08T12:54:01.517Z,18.71
2022-10-08T12:55:01.657Z,18.60
2022-10-08T12:56:01.507Z,18.58
2022-10-08T12:57:01.476Z,18.60
2022-10-08T12:58:01.430Z,18.67
2022-10-08T12:59:01.463Z,18.68
2022-10-08T13:00:01.357Z,18.66
2022-10-08T13:01:01.360Z,18.66
2022-10-08T13:02:01.570Z,18.64
2022-10-08T13:03:01.321Z,18.64
2022-10-08T13:04:01.311Z,18.55
2022-10-08T13:05:01.353Z,18.48
2022-10-08T13:06:01.290Z,18.43
2022-10-08T13:07:01.322Z,18.46
2022-10-08T13:08:02.668Z,18.52
2022-10-08T13:09:01.255Z,18.60
2022-10-08T13:10:01.227Z,18.63
2022-10-08T13:11:01.238Z,18.66
2022-10-08T13:12:03.574Z,18.70
2022-10-08T13:13:01.197Z,18.74
2022-10-08T13:14:01.256Z,18.74
2022-10-08T13:15:01.197Z,18.73
2022-10-08T13:16:01.270Z,18.68
2022-10-08T13:17:01.219Z,18.68
2022-10-08T13:18:01.127Z,18.64
2022-10-08T13:19:01.147Z,18.61
2022-10-08T13:20:01.130Z,18.61
2022-10-08T13:21:01.084Z,18.58
2022-10-08T13:22:01.231Z,18.60
2022-10-08T13:23:01.073Z,18.57
2022-10-08T13:24:01.062Z,18.52
2022-10-08T13:25:01.327Z,18.46
2022-10-08T13:26:01.002Z,18.45
2022-10-08T13:27:01.086Z,18.46
2022-10-08T13:28:01.052Z,18.48
2022-10-08T13:29:02.629Z,18.45
2022-10-08T13:30:00.988Z,18.48
2022-10-08T13:31:01.095Z,18.51
2022-10-08T13:32:01.017Z,18.55
2022-10-08T13:33:01.026Z,18.60
2022-10-08T13:34:00.937Z,18.67
2022-10-08T13:35:00.996Z,18.67
2022-10-08T13:36:00.886Z,18.67
2022-10-08T13:37:01.088Z,18.78
2022-10-08T13:38:00.857Z,18.91
2022-10-08T13:39:00.834Z,18.91
2022-10-08T13:40:00.868Z,18.88
2022-10-08T13:41:00.852Z,18.82
2022-10-08T13:42:00.883Z,18.74
2022-10-08T13:43:00.812Z,18.76
2022-10-08T13:44:00.793Z,18.70
2022-10-08T13:45:00.798Z,18.71
2022-10-08T13:46:00.751Z,18.76
2022-10-08T13:47:03.751Z,18.76
2022-10-08T13:48:00.862Z,18.76
2022-10-08T13:49:00.728Z,18.73
2022-10-08T13:50:00.768Z,18.71
2022-10-08T13:51:00.708Z,18.66
2022-10-08T13:52:00.737Z,18.67
2022-10-08T13:53:00.660Z,18.67
2022-10-08T13:54:00.662Z,18.64
2022-10-08T13:55:00.667Z,18.63
2022-10-08T13:56:00.613Z,18.64
2022-10-08T13:57:00.647Z,18.60
2022-10-08T13:58:00.699Z,18.58
2022-10-08T13:59:00.578Z,18.53
2022-10-08T14:00:00.581Z,18.48
2022-10-08T14:01:00.597Z,18.42
2022-10-08T14:02:00.684Z,18.39
2022-10-08T14:03:00.529Z,18.37
2022-10-08T14:04:00.517Z,18.30
2022-10-08T14:05:00.731Z,18.24
2022-10-08T14:06:00.541Z,18.19
2022-10-08T14:07:00.513Z,18.09
2022-10-08T14:08:00.480Z,18.05
2022-10-08T14:09:00.450Z,17.98
2022-10-08T14:10:00.463Z,17.95
2022-10-08T14:11:00.417Z,17.90
2022-10-08T14:12:00.450Z,17.84
2022-10-08T14:13:00.409Z,17.86
2022-10-08T14:14:00.437Z,17.82
2022-10-08T14:15:00.380Z,17.79
2022-10-08T14:16:00.532Z,17.75
2022-10-08T14:17:00.377Z,17.75
2022-10-08T14:18:00.326Z,17.76
2022-10-08T14:19:02.426Z,17.78
2022-10-08T14:20:00.307Z,17.78
2022-10-08T14:21:00.371Z,17.72
2022-10-08T14:22:00.261Z,17.71
2022-10-08T14:23:00.481Z,17.73
2022-10-08T14:24:00.248Z,17.72
2022-10-08T14:25:00.225Z,17.73
2022-10-08T14:26:00.301Z,17.72
2022-10-08T14:27:02.915Z,17.73
2022-10-08T14:28:00.195Z,17.72
2022-10-08T14:29:00.189Z,17.76
2022-10-08T14:30:00.175Z,17.80
2022-10-08T14:31:00.237Z,17.80
2022-10-08T14:32:00.152Z,17.82
2022-10-08T14:33:00.407Z,17.82
2022-10-08T14:34:00.127Z,17.87
2022-10-08T14:35:00.112Z,17.87
2022-10-08T14:36:00.126Z,17.87
2022-10-08T14:37:00.093Z,17.88
2022-10-08T14:38:00.069Z,17.90
2022-10-08T14:39:00.051Z,17.90
2022-10-08T14:40:00.047Z,17.91
2022-10-08T14:41:00.102Z,17.88
2022-10-08T14:42:00.202Z,17.88
2022-10-08T14:43:00.017Z,17.86
2022-10-08T14:44:00.223Z,17.84
2022-10-08T14:44:59.942Z,17.80
2022-10-08T14:46:00.094Z,17.76
2022-10-08T14:46:59.950Z,17.73
2022-10-08T14:47:59.927Z,17.73
2022-10-08T14:48:59.970Z,17.71
2022-10-08T14:49:59.901Z,17.66
2022-10-08T14:50:59.876Z,17.63
2022-10-08T14:51:59.986Z,17.57
2022-10-08T14:52:59.856Z,17.54
2022-10-08T14:53:59.856Z,17.52
2022-10-08T14:54:59.819Z,17.50
2022-10-08T14:56:12.125Z,17.47
2022-10-08T14:56:59.892Z,17.44
2022-10-08T14:57:59.782Z,17.44
2022-10-08T14:58:59.833Z,17.42
2022-10-08T14:59:59.774Z,17.42
2022-10-08T15:00:59.792Z,17.41
2022-10-08T15:01:59.894Z,17.37
2022-10-08T15:02:59.722Z,17.31
2022-10-08T15:03:59.749Z,17.27
2022-10-08T15:04:59.691Z,17.23
2022-10-08T15:05:59.682Z,17.22
2022-10-08T15:06:59.673Z,17.19
2022-10-08T15:07:59.972Z,17.16
2022-10-08T15:08:59.637Z,17.12
2022-10-08T15:09:59.627Z,17.07
2022-10-08T15:10:59.628Z,17.02
2022-10-08T15:11:59.638Z,17.01
2022-10-08T15:12:59.666Z,17.02
2022-10-08T15:13:59.768Z,17.02
2022-10-08T15:14:59.748Z,17.01
2022-10-08T15:15:59.636Z,16.99
2022-10-08T15:16:59.612Z,16.98
2022-10-08T15:17:59.613Z,17.02
2022-10-08T15:18:59.503Z,17.01
2022-10-08T15:19:59.532Z,16.99
2022-10-08T15:20:59.512Z,16.99
2022-10-08T15:21:59.482Z,16.95
2022-10-08T15:22:59.519Z,16.94
2022-10-08T15:23:59.577Z,16.92
2022-10-08T15:24:59.431Z,16.92
2022-10-08T15:25:59.519Z,16.91
2022-10-08T15:26:59.427Z,16.91
2022-10-08T15:27:59.543Z,16.89
2022-10-08T15:28:59.377Z,16.89
2022-10-08T15:29:59.587Z,16.87
2022-10-08T15:30:59.407Z,16.84
2022-10-08T15:31:59.415Z,16.84
2022-10-08T15:32:59.537Z,16.83
2022-10-08T15:33:59.317Z,16.84
2022-10-08T15:34:59.302Z,16.84
2022-10-08T15:35:59.359Z,16.80
2022-10-08T15:36:59.282Z,16.79
2022-10-08T15:37:59.429Z,16.79
2022-10-08T15:38:59.261Z,16.74
2022-10-08T15:39:59.253Z,16.74
2022-10-08T15:40:59.262Z,16.72
2022-10-08T15:41:59.212Z,16.69
2022-10-08T15:42:59.260Z,16.69
2022-10-08T15:43:59.172Z,16.68
2022-10-08T15:44:59.197Z,16.68
2022-10-08T15:45:59.254Z,16.68
2022-10-08T15:46:59.900Z,16.65
2022-10-08T15:47:59.178Z,16.64
2022-10-08T15:48:59.216Z,16.62
2022-10-08T15:49:59.066Z,16.61
2022-10-08T15:50:59.129Z,16.57
2022-10-08T15:51:59.058Z,16.55
2022-10-08T15:52:59.038Z,16.51
2022-10-08T15:53:59.167Z,16.49
2022-10-08T15:54:59.083Z,16.47
2022-10-08T15:55:59.061Z,16.43
2022-10-08T15:56:59.049Z,16.40
2022-10-08T15:57:58.965Z,16.37
2022-10-08T15:58:59.083Z,16.32
2022-10-08T15:59:58.987Z,16.29
2022-10-08T16:00:58.975Z,16.26
2022-10-08T16:01:58.977Z,16.22
2022-10-08T16:02:58.942Z,16.18
2022-10-08T16:03:59.033Z,16.13
2022-10-08T16:04:58.908Z,16.09
2022-10-08T16:05:58.917Z,16.05
2022-10-08T16:06:58.868Z,16.03
2022-10-08T16:07:58.859Z,15.99
2022-10-08T16:08:58.927Z,15.94
2022-10-08T16:09:58.826Z,15.88
2022-10-08T16:10:58.860Z,15.84
2022-10-08T16:11:58.807Z,15.76
2022-10-08T16:12:58.755Z,15.75
2022-10-08T16:13:58.878Z,15.70
2022-10-08T16:14:58.792Z,15.66
2022-10-08T16:15:58.732Z,15.60
2022-10-08T16:16:58.890Z,15.55
2022-10-08T16:17:58.741Z,15.48
2022-10-08T16:18:58.800Z,15.45
2022-10-08T16:19:58.724Z,15.41
2022-10-08T16:20:58.692Z,15.37
2022-10-08T16:21:58.718Z,15.33
2022-10-08T16:22:58.678Z,15.32
2022-10-08T16:23:58.757Z,15.29
2022-10-08T16:24:58.777Z,15.27
2022-10-08T16:25:58.617Z,15.27
2022-10-08T16:26:58.653Z,15.27
2022-10-08T16:27:58.607Z,15.27
2022-10-08T16:28:58.653Z,15.29
2022-10-08T16:29:58.531Z,15.26
2022-10-08T16:30:58.653Z,15.29
2022-10-08T16:31:58.558Z,15.27
2022-10-08T16:32:58.583Z,15.26
2022-10-08T16:33:58.522Z,15.25
2022-10-08T16:34:58.561Z,15.23
2022-10-08T16:39:12.667Z,15.22
2022-10-08T16:40:13.539Z,15.25
2022-10-08T16:41:13.557Z,15.26
2022-10-08T16:42:13.648Z,15.26
2022-10-08T16:43:13.532Z,15.26
2022-10-08T16:44:13.732Z,15.25
2022-10-08T16:45:13.502Z,15.22
2022-10-08T16:46:13.587Z,15.22
2022-10-08T16:47:13.493Z,15.19
2022-10-08T16:48:13.642Z,15.18
2022-10-08T16:49:13.584Z,15.14
2022-10-08T16:50:13.423Z,15.17
2022-10-08T16:51:13.492Z,15.14
2022-10-08T16:52:13.665Z,15.14
2022-10-08T16:53:13.518Z,15.14
2022-10-08T16:54:13.447Z,15.15
2022-10-08T16:55:13.509Z,15.14
2022-10-08T16:56:13.329Z,15.15
2022-10-08T16:57:13.328Z,15.15
2022-10-08T16:58:13.348Z,15.17
2022-10-08T16:59:13.571Z,15.17
2022-10-08T17:00:13.299Z,15.18
2022-10-08T17:01:13.338Z,15.19
2022-10-08T17:02:13.383Z,15.18
2022-10-08T17:03:13.512Z,15.22
2022-10-08T17:04:13.303Z,15.18
2022-10-08T17:05:13.283Z,15.17
2022-10-08T17:06:13.280Z,15.15
2022-10-08T17:07:13.213Z,15.15
2022-10-08T17:08:13.249Z,15.15
2022-10-08T17:09:13.217Z,15.15
2022-10-08T17:10:13.162Z,15.15
2022-10-08T17:11:13.165Z,15.15
2022-10-08T17:12:13.336Z,15.15
2022-10-08T17:13:13.189Z,15.14
2022-10-08T17:14:13.117Z,15.14
2022-10-08T17:15:13.108Z,15.11
2022-10-08T17:16:13.118Z,15.11
2022-10-08T17:17:13.176Z,15.08
2022-10-08T17:18:13.168Z,15.11
2022-10-08T17:19:13.030Z,15.11
2022-10-08T17:20:13.137Z,15.12
2022-10-08T17:21:13.007Z,15.12
2022-10-08T17:22:12.973Z,15.12
2022-10-08T17:23:13.060Z,15.12
2022-10-08T17:24:12.992Z,15.12
2022-10-08T17:25:12.973Z,15.12
2022-10-08T17:26:12.953Z,15.11
2022-10-08T17:27:12.912Z,15.10
2022-10-08T17:28:13.024Z,15.10
2022-10-08T17:29:12.928Z,15.11
2022-10-08T17:30:12.903Z,15.08
2022-10-08T17:31:12.990Z,15.08
2022-10-08T17:32:12.879Z,15.10
2022-10-08T17:33:12.969Z,15.11
2022-10-08T17:34:12.848Z,15.12
2022-10-08T17:35:12.869Z,15.15
2022-10-08T17:36:12.867Z,15.15
2022-10-08T17:37:12.913Z,15.14
2022-10-08T17:38:12.927Z,15.15
2022-10-08T17:39:12.878Z,15.15
2022-10-08T17:40:12.865Z,15.15
2022-10-08T17:41:12.830Z,15.14
2022-10-08T17:42:12.855Z,15.14
2022-10-08T17:43:12.803Z,15.14
2022-10-08T17:44:12.921Z,15.15
2022-10-08T17:45:12.745Z,15.12
2022-10-08T17:46:13.926Z,15.15
2022-10-08T17:47:12.637Z,15.14
2022-10-08T17:48:12.793Z,15.15
2022-10-08T17:49:12.807Z,15.15
2022-10-08T17:50:12.689Z,15.14
2022-10-08T17:51:12.642Z,15.15
2022-10-08T17:52:12.630Z,15.14
2022-10-08T17:53:12.677Z,15.15
2022-10-08T17:54:12.762Z,15.15
2022-10-08T17:55:16.585Z,15.15
2022-10-08T17:56:12.589Z,15.15
2022-10-08T17:57:12.558Z,15.17
2022-10-08T17:58:12.613Z,15.17
2022-10-08T17:59:12.551Z,15.18
2022-10-08T18:00:12.713Z,15.17
2022-10-08T18:01:12.662Z,15.18
2022-10-08T18:02:12.760Z,15.18
2022-10-08T18:03:12.575Z,15.19
2022-10-08T18:04:12.852Z,15.18
2022-10-08T18:05:12.466Z,15.18
2022-10-08T18:06:12.420Z,15.19
2022-10-08T18:07:12.557Z,15.19
2022-10-08T18:08:12.482Z,15.17
2022-10-08T18:09:12.468Z,15.15
2022-10-08T18:10:12.402Z,15.12
2022-10-08T18:11:13.387Z,15.11
2022-10-08T18:12:12.422Z,15.08
2022-10-08T18:13:12.518Z,15.05
2022-10-08T18:14:12.338Z,15.05
2022-10-08T18:15:12.420Z,15.02
2022-10-08T18:16:12.415Z,15.00
2022-10-08T18:17:13.329Z,14.97
2022-10-08T18:18:12.307Z,14.96
2022-10-08T18:19:12.285Z,14.96
2022-10-08T18:20:12.222Z,14.93
2022-10-08T18:21:13.095Z,14.94
2022-10-08T18:22:12.242Z,14.92
2022-10-08T18:23:12.314Z,14.92
2022-10-08T18:24:12.228Z,14.90
2022-10-08T18:25:15.909Z,14.87
2022-10-08T18:26:12.224Z,14.87
2022-10-08T18:27:12.899Z,14.86
2022-10-08T18:28:12.187Z,14.85
2022-10-08T18:29:12.119Z,14.82
2022-10-08T18:30:12.245Z,14.81
2022-10-08T18:31:12.224Z,14.79
2022-10-08T18:32:12.135Z,14.79
2022-10-08T18:33:12.083Z,14.78
2022-10-08T18:34:12.042Z,14.77
2022-10-08T18:35:12.073Z,14.73
2022-10-08T18:36:12.046Z,14.71
2022-10-08T18:37:12.183Z,14.71
2022-10-08T18:38:12.006Z,14.68
2022-10-08T18:39:11.992Z,14.66
2022-10-08T18:40:11.953Z,14.62
2022-10-08T18:41:12.022Z,14.61
2022-10-08T18:42:12.148Z,14.61
2022-10-08T18:43:11.959Z,14.59
2022-10-08T18:44:12.089Z,14.58
2022-10-08T18:45:11.933Z,14.58
2022-10-08T18:46:12.144Z,14.58
2022-10-08T18:47:11.989Z,14.59
2022-10-08T18:48:12.100Z,14.59
2022-10-08T18:49:11.911Z,14.59
2022-10-08T18:50:11.868Z,14.62
2022-10-08T18:51:11.918Z,14.62
2022-10-08T18:52:12.395Z,14.66
2022-10-08T18:53:11.828Z,14.70
2022-10-08T18:54:11.895Z,14.70
2022-10-08T18:55:12.007Z,14.71
2022-10-08T18:56:11.800Z,14.71
2022-10-08T18:57:11.954Z,14.70
2022-10-08T18:58:11.727Z,14.73
2022-10-08T18:59:11.857Z,14.73
2022-10-08T19:00:11.776Z,14.70
2022-10-08T19:01:11.798Z,14.68
2022-10-08T19:02:11.885Z,14.67
2022-10-08T19:03:11.726Z,14.66
2022-10-08T19:04:11.708Z,14.67
2022-10-08T19:05:11.678Z,14.68
2022-10-08T19:06:11.705Z,14.67
2022-10-08T19:07:11.669Z,14.66
2022-10-08T19:08:11.698Z,14.68
2022-10-08T19:09:11.747Z,14.68
2022-10-08T19:10:11.640Z,14.66
2022-10-08T19:11:11.703Z,14.66
2022-10-08T19:12:11.573Z,14.66
2022-10-08T19:13:11.584Z,14.66
2022-10-08T19:14:11.756Z,14.68
2022-10-08T19:15:11.499Z,14.66
2022-10-08T19:16:11.564Z,14.66
2022-10-08T19:17:11.913Z,14.63
2022-10-08T19:18:11.749Z,14.66
2022-10-08T19:19:11.591Z,14.63
2022-10-08T19:20:11.458Z,14.67
2022-10-08T19:21:11.660Z,14.67
2022-10-08T19:22:11.438Z,14.66
2022-10-08T19:23:11.409Z,14.67
2022-10-08T19:24:11.409Z,14.67
2022-10-08T19:25:11.298Z,14.66
2022-10-08T19:26:11.435Z,14.68
2022-10-08T19:27:11.392Z,14.67
2022-10-08T19:28:11.479Z,14.66
2022-10-08T19:29:11.573Z,14.66
2022-10-08T19:30:11.417Z,14.66
2022-10-08T19:31:11.382Z,14.63
2022-10-08T19:32:11.343Z,14.66
2022-10-08T19:33:11.222Z,14.63
2022-10-08T19:34:11.300Z,14.63
2022-10-08T19:35:11.248Z,14.61
2022-10-08T19:36:11.202Z,14.62
2022-10-08T19:37:11.268Z,14.59
2022-10-08T19:38:11.198Z,14.58
2022-10-08T19:39:11.197Z,14.58
2022-10-08T19:40:11.242Z,14.58
2022-10-08T19:41:11.149Z,14.59
2022-10-08T19:42:11.228Z,14.59
2022-10-08T19:43:11.107Z,14.58
2022-10-08T19:44:11.084Z,14.56
2022-10-08T19:45:11.098Z,14.56
2022-10-08T19:46:11.127Z,14.56
2022-10-08T19:47:11.095Z,14.53
2022-10-08T19:48:11.377Z,14.55
2022-10-08T19:49:11.135Z,14.55
2022-10-08T19:50:11.008Z,14.51
2022-10-08T19:51:11.064Z,14.53
2022-10-08T19:52:11.007Z,14.51
2022-10-08T19:53:11.028Z,14.51
2022-10-08T19:54:11.178Z,14.49
2022-10-08T19:55:11.048Z,14.45
2022-10-08T19:56:11.091Z,14.45
2022-10-08T19:57:10.921Z,14.45
2022-10-08T19:58:10.960Z,14.44
2022-10-08T19:59:10.982Z,14.44
2022-10-08T20:00:10.906Z,14.44
2022-10-08T20:01:10.969Z,14.45
2022-10-08T20:02:10.905Z,14.44
2022-10-08T20:03:10.980Z,14.44
2022-10-08T20:04:10.839Z,14.44
2022-10-08T20:05:10.941Z,14.45
2022-10-08T20:06:10.823Z,14.45
2022-10-08T20:07:10.943Z,14.45
2022-10-08T20:08:10.842Z,14.44
2022-10-08T20:09:10.933Z,14.45
2022-10-08T20:10:10.778Z,14.45
2022-10-08T20:11:10.933Z,14.45
2022-10-08T20:12:10.793Z,14.41
2022-10-08T20:13:11.006Z,14.44
2022-10-08T20:14:10.797Z,14.44
2022-10-08T20:15:10.728Z,14.43
2022-10-08T20:16:10.793Z,14.43
2022-10-08T20:17:10.679Z,14.44
2022-10-08T20:18:10.749Z,14.44
2022-10-08T20:19:10.659Z,14.45
2022-10-08T20:20:31.642Z,14.45
2022-10-08T20:21:10.618Z,14.45
2022-10-08T20:22:11.983Z,14.45
2022-10-08T20:23:10.628Z,14.45
2022-10-08T20:24:10.638Z,14.45
2022-10-08T20:25:10.645Z,14.45
2022-10-08T20:26:10.575Z,14.44
2022-10-08T20:27:10.627Z,14.44
2022-10-08T20:28:10.813Z,14.43
2022-10-08T20:29:10.716Z,14.41
2022-10-08T20:30:10.534Z,14.41
2022-10-08T20:31:10.750Z,14.43
2022-10-08T20:32:10.485Z,14.41
2022-10-08T20:33:10.456Z,14.41
2022-10-08T20:34:10.534Z,14.40
2022-10-08T20:35:10.633Z,14.40
2022-10-08T20:36:10.467Z,14.41
2022-10-08T20:37:10.428Z,14.40
2022-10-08T20:38:10.475Z,14.41
2022-10-08T20:39:10.458Z,14.38
2022-10-08T20:40:10.480Z,14.38
2022-10-08T20:41:10.371Z,14.38
2022-10-08T20:42:10.468Z,14.38
2022-10-08T20:43:10.319Z,14.38
2022-10-08T20:44:10.529Z,14.38
2022-10-08T20:45:10.298Z,14.38
2022-10-08T20:46:10.358Z,14.38
2022-10-08T20:47:10.304Z,14.36
2022-10-08T20:48:10.253Z,14.36
2022-10-08T20:49:10.373Z,14.37
2022-10-08T20:50:10.474Z,14.36
2022-10-08T20:51:10.315Z,14.34
2022-10-08T20:52:10.465Z,14.34
2022-10-08T20:53:10.314Z,14.34
2022-10-08T20:54:10.245Z,14.31
2022-10-08T20:55:10.292Z,14.33
2022-10-08T20:56:10.142Z,14.30
2022-10-08T20:57:10.148Z,14.28
2022-10-08T20:58:10.157Z,14.28
2022-10-08T20:59:10.128Z,14.26
2022-10-08T21:00:10.209Z,14.26
2022-10-08T21:01:10.141Z,14.25
2022-10-08T21:02:10.199Z,14.26
2022-10-08T21:03:10.058Z,14.30
2022-10-08T21:04:10.138Z,14.28
2022-10-08T21:05:10.638Z,14.26
2022-10-08T21:06:10.128Z,14.25
2022-10-08T21:07:09.988Z,14.25
2022-10-08T21:08:10.015Z,14.23
2022-10-08T21:09:09.985Z,14.23
2022-10-08T21:10:10.053Z,14.23
2022-10-08T21:11:09.983Z,14.22
2022-10-08T21:12:09.935Z,14.19
2022-10-08T21:13:09.973Z,14.19
2022-10-08T21:14:10.165Z,14.18
2022-10-08T21:15:10.053Z,14.18
2022-10-08T21:16:09.914Z,14.16
2022-10-08T21:17:09.964Z,14.18
2022-10-08T21:18:09.868Z,14.16
2022-10-08T21:19:09.994Z,14.15
2022-10-08T21:20:09.908Z,14.13
2022-10-08T21:21:09.980Z,14.15
2022-10-08T21:22:09.819Z,14.11
2022-10-08T21:23:09.798Z,14.08
2022-10-08T21:24:09.819Z,14.11
2022-10-08T21:25:09.828Z,14.07
2022-10-08T21:26:09.809Z,14.05
2022-10-08T21:27:09.727Z,14.05
2022-10-08T21:28:09.969Z,14.05
2022-10-08T21:29:09.994Z,14.04
2022-10-08T21:30:09.904Z,14.03
2022-10-08T21:31:09.767Z,14.07
2022-10-08T21:32:09.672Z,14.07
2022-10-08T21:33:09.654Z,14.07
2022-10-08T21:34:09.822Z,14.05
2022-10-08T21:35:09.723Z,14.05
2022-10-08T21:36:09.814Z,14.04
2022-10-08T21:37:13.679Z,14.03
2022-10-08T21:38:09.618Z,14.01
2022-10-08T21:39:09.658Z,14.03
2022-10-08T21:40:09.822Z,14.01
2022-10-08T21:41:09.743Z,13.98
2022-10-08T21:42:09.548Z,13.95
2022-10-08T21:43:09.647Z,13.95
2022-10-08T21:44:09.518Z,13.95
2022-10-08T21:45:09.489Z,13.94
2022-10-08T21:46:09.611Z,13.91
2022-10-08T21:47:09.470Z,13.91
2022-10-08T21:48:09.489Z,13.89
2022-10-08T21:49:09.428Z,13.87
2022-10-08T21:50:09.488Z,13.87
2022-10-08T21:51:09.735Z,13.87
2022-10-08T21:52:09.497Z,13.85
2022-10-08T21:53:09.672Z,13.85
2022-10-08T21:54:09.503Z,13.82
2022-10-08T21:55:09.363Z,13.82
2022-10-08T21:56:09.593Z,13.82
2022-10-08T21:57:11.364Z,13.80
2022-10-08T21:58:09.323Z,13.79
2022-10-08T21:59:09.337Z,13.79
2022-10-08T22:00:09.283Z,13.78
2022-10-08T22:01:09.462Z,13.78
2022-10-08T22:02:09.663Z,13.79
2022-10-08T22:03:09.338Z,13.78
2022-10-08T22:04:09.498Z,13.79
2022-10-08T22:05:09.348Z,13.79
2022-10-08T22:06:09.228Z,13.80
2022-10-08T22:07:09.267Z,13.79
2022-10-08T22:08:09.188Z,13.79
2022-10-08T22:09:09.167Z,13.79
2022-10-08T22:10:09.168Z,13.80
2022-10-08T22:11:09.328Z,13.78
2022-10-08T22:12:09.263Z,13.79
2022-10-08T22:13:09.344Z,13.79
2022-10-08T22:14:09.173Z,13.78
2022-10-08T22:15:09.109Z,13.80
2022-10-08T22:16:09.109Z,13.79
2022-10-08T22:17:09.180Z,13.78
2022-10-08T22:18:09.173Z,13.76
2022-10-08T22:19:09.338Z,13.76
2022-10-08T22:20:09.193Z,13.76
2022-10-08T22:21:09.015Z,13.76
2022-10-08T22:22:09.249Z,13.76
2022-10-08T22:23:09.038Z,13.76
2022-10-08T22:24:09.189Z,13.76
2022-10-08T22:25:09.038Z,13.76
2022-10-08T22:26:09.198Z,13.76
2022-10-08T22:27:09.119Z,13.75
2022-10-08T22:28:09.024Z,13.75
2022-10-08T22:29:09.009Z,13.75
2022-10-08T22:30:08.867Z,13.71
2022-10-08T22:31:09.133Z,13.73
2022-10-08T22:32:08.920Z,13.71
2022-10-08T22:33:09.028Z,13.73
2022-10-08T22:34:08.874Z,13.71
2022-10-08T22:35:09.034Z,13.71
2022-10-08T22:36:08.863Z,13.70
2022-10-08T22:37:09.083Z,13.70
2022-10-08T22:38:08.863Z,13.70
2022-10-08T22:39:08.786Z,13.68
2022-10-08T22:40:08.853Z,13.70
2022-10-08T22:41:08.743Z,13.68
2022-10-08T22:42:08.924Z,13.68
2022-10-08T22:43:08.703Z,13.68
2022-10-08T22:44:08.868Z,13.68
2022-10-08T22:45:08.699Z,13.67
2022-10-08T22:46:08.948Z,13.68
2022-10-08T22:47:08.767Z,13.68
2022-10-08T22:48:08.648Z,13.70
2022-10-08T22:49:08.709Z,13.67
2022-10-08T22:50:08.637Z,13.67
2022-10-08T22:51:08.698Z,13.68
2022-10-08T22:52:08.650Z,13.65
2022-10-08T22:53:08.688Z,13.67
2022-10-08T22:54:08.568Z,13.64
2022-10-08T22:55:08.714Z,13.67
2022-10-08T22:56:08.543Z,13.64
2022-10-08T22:57:08.713Z,13.62
2022-10-08T22:58:08.524Z,13.64
2022-10-08T22:59:08.713Z,13.62
2022-10-08T23:00:08.554Z,13.64
2022-10-08T23:01:08.472Z,13.64
2022-10-08T23:02:08.682Z,13.62
2022-10-08T23:03:08.520Z,13.61
2022-10-08T23:04:08.422Z,13.61
2022-10-08T23:05:08.414Z,13.60
2022-10-08T23:06:08.555Z,13.58
2022-10-08T23:07:08.457Z,13.57
2022-10-08T23:08:08.399Z,13.54
2022-10-08T23:09:08.378Z,13.50
2022-10-08T23:10:08.357Z,13.50
2022-10-08T23:11:08.378Z,13.45
2022-10-08T23:12:08.387Z,13.46
2022-10-08T23:13:08.378Z,13.46
2022-10-08T23:14:08.548Z,13.45
2022-10-08T23:15:08.288Z,13.43
2022-10-08T23:16:08.367Z,13.43
2022-10-08T23:17:08.433Z,13.42
2022-10-08T23:18:08.558Z,13.40
2022-10-08T23:19:08.373Z,13.42
2022-10-08T23:20:08.213Z,13.42
2022-10-08T23:21:08.376Z,13.40
2022-10-08T23:22:08.285Z,13.39
2022-10-08T23:23:08.184Z,13.40
2022-10-08T23:24:08.226Z,13.39
2022-10-08T23:25:08.394Z,13.39
2022-10-08T23:26:08.219Z,13.36
2022-10-08T23:27:09.749Z,13.37
2022-10-08T23:28:08.307Z,13.36
2022-10-08T23:29:08.478Z,13.33
2022-10-08T23:30:25.538Z,13.31
2022-10-08T23:31:08.097Z,13.30
2022-10-08T23:32:08.377Z,13.30
2022-10-08T23:33:08.059Z,13.28
2022-10-08T23:34:08.227Z,13.27
2022-10-08T23:35:08.078Z,13.27
2022-10-08T23:36:08.241Z,13.28
2022-10-08T23:37:08.119Z,13.27
2022-10-08T23:38:08.021Z,13.27
2022-10-08T23:39:08.054Z,13.24
2022-10-08T23:40:08.237Z,13.24
2022-10-08T23:41:08.053Z,13.24
2022-10-08T23:42:07.933Z,13.24
2022-10-08T23:43:08.075Z,13.23
2022-10-08T23:44:07.902Z,13.23
2022-10-08T23:45:07.894Z,13.20
2022-10-08T23:46:07.913Z,13.20
2022-10-08T23:47:08.053Z,13.19
2022-10-08T23:48:07.954Z,13.19
2022-10-08T23:49:07.833Z,13.16
2022-10-08T23:50:07.917Z,13.16
2022-10-08T23:51:08.051Z,13.17
2022-10-08T23:52:07.898Z,13.16
2022-10-08T23:53:07.867Z,13.16
2022-10-08T23:54:07.902Z,13.19
2022-10-08T23:55:07.758Z,13.16
2022-10-08T23:56:07.930Z,13.19
2022-10-08T23:57:07.759Z,13.19
2022-10-08T23:58:08.229Z,13.23
2022-10-08T23:59:07.736Z,13.20
